createdAt,value
2022-08-16T00:01:02.052Z,20.48
2022-08-16T00:06:11.905Z,19.77
2022-08-16T00:11:22.638Z,16.95
2022-08-16T00:17:00.718Z,17.70
2022-08-16T00:22:02.992Z,16.30
2022-08-16T00:27:13.016Z,16.10
2022-08-16T00:32:18.990Z,15.10
2022-08-16T00:37:58.159Z,14.73
2022-08-16T00:42:55.896Z,12.35
2022-08-16T00:48:30.308Z,13.45
2022-08-16T00:53:36.997Z,11.80
2022-08-16T00:58:48.639Z,9.68
2022-08-16T01:03:56.809Z,9.25
2022-08-16T01:09:07.572Z,8.77
2022-08-16T01:14:25.069Z,10.90
2022-08-16T01:19:46.127Z,8.63
2022-08-16T01:25:02.440Z,11.40
2022-08-16T01:30:26.686Z,11.85
2022-08-16T01:36:11.782Z,12.73
2022-08-16T01:41:29.881Z,13.52
2022-08-16T01:46:40.860Z,11.18
2022-08-16T01:52:00.036Z,11.35
2022-08-16T01:57:35.576Z,8.95
2022-08-16T02:02:42.782Z,12.32
2022-08-16T02:07:49.305Z,13.32
2022-08-16T02:13:00.045Z,14.30
2022-08-16T02:18:12.712Z,12.50
2022-08-16T02:23:19.815Z,6.60
2022-08-16T02:28:27.901Z,7.47
2022-08-16T02:33:44.704Z,8.68
2022-08-16T02:39:05.709Z,7.47
2022-08-16T02:44:14.023Z,8.65
2022-08-16T02:49:58.357Z,9.70
2022-08-16T02:54:55.399Z,10.35
2022-08-16T03:00:34.149Z,10.55
2022-08-16T03:05:31.651Z,10.35
2022-08-16T03:10:39.395Z,11.05
2022-08-16T03:15:49.586Z,10.93
2022-08-16T03:20:58.059Z,10.68
2022-08-16T03:26:03.829Z,11.48
2022-08-16T03:31:10.017Z,11.25
2022-08-16T03:36:30.765Z,11.48
2022-08-16T03:41:50.944Z,11.43
2022-08-16T03:46:58.976Z,8.57
2022-08-16T03:52:14.957Z,10.13
2022-08-16T03:57:22.482Z,8.15
2022-08-16T04:02:31.838Z,10.23
2022-08-16T04:07:42.506Z,9.63
2022-08-16T04:12:53.849Z,10.40
2022-08-16T04:18:14.206Z,9.27
2022-08-16T04:28:52.552Z,9.52
2022-08-16T04:33:51.563Z,10.40
2022-08-16T04:39:00.748Z,9.27
2022-08-16T04:44:33.064Z,10.88
2022-08-16T04:54:54.365Z,12.52
2022-08-16T05:00:30.646Z,11.70
2022-08-16T05:10:43.624Z,10.68
2022-08-16T05:16:24.131Z,15.23
2022-08-16T05:21:38.424Z,14.10
2022-08-16T05:26:51.279Z,15.60
2022-08-16T05:32:32.403Z,13.98
2022-08-16T05:37:50.900Z,12.43
2022-08-16T05:43:01.243Z,13.43
2022-08-16T05:48:26.992Z,12.07
2022-08-16T05:53:39.779Z,13.48
2022-08-16T05:58:52.682Z,13.45
2022-08-16T06:03:59.661Z,13.00
2022-08-16T06:09:11.708Z,13.27
2022-08-16T06:14:26.182Z,13.97
2022-08-16T06:19:36.040Z,10.93
2022-08-16T06:24:55.700Z,14.05
2022-08-16T06:30:12.107Z,12.55
2022-08-16T06:35:27.972Z,11.15
2022-08-16T06:40:49.285Z,10.93
2022-08-16T06:45:55.825Z,11.55
2022-08-16T06:51:08.738Z,11.68
2022-08-16T06:56:23.523Z,12.80
2022-08-16T07:01:53.739Z,12.35
2022-08-16T07:07:04.204Z,12.73
2022-08-16T07:12:11.451Z,14.18
2022-08-16T07:17:24.599Z,12.50
2022-08-16T07:22:37.424Z,12.93
2022-08-16T07:27:58.149Z,13.90
2022-08-16T07:33:08.723Z,14.52
2022-08-16T07:38:19.733Z,14.27
2022-08-16T07:43:31.529Z,14.43
2022-08-16T07:48:47.572Z,13.00
2022-08-16T07:54:02.438Z,13.85
2022-08-16T07:59:19.690Z,14.20
2022-08-16T08:04:25.510Z,14.20
2022-08-16T08:09:43.522Z,13.10
2022-08-16T08:14:51.887Z,14.45
2022-08-16T08:19:57.343Z,13.48
2022-08-16T08:25:06.699Z,15.07
2022-08-16T08:30:52.051Z,13.07
2022-08-16T08:49:18.106Z,12.75
2022-08-16T08:54:24.026Z,13.52
2022-08-16T08:59:33.096Z,14.82
2022-08-16T09:04:41.417Z,13.32
2022-08-16T09:10:06.221Z,13.60
2022-08-16T09:15:17.227Z,13.35
2022-08-16T09:20:30.746Z,14.38
2022-08-16T09:25:36.495Z,15.13
2022-08-16T09:30:46.590Z,13.43
2022-08-16T09:35:54.408Z,15.13
2022-08-16T09:41:00.791Z,16.00
2022-08-16T09:46:44.615Z,15.82
2022-08-16T09:51:36.860Z,17.00
2022-08-16T09:56:52.547Z,17.73
2022-08-16T10:01:59.755Z,17.60
2022-08-16T10:07:15.493Z,19.80
2022-08-16T10:12:42.943Z,16.60
2022-08-16T10:18:00.108Z,16.13
2022-08-16T10:23:17.120Z,16.70
2022-08-16T10:28:28.979Z,17.45
2022-08-16T10:33:40.369Z,15.85
2022-08-16T10:44:37.723Z,17.77
2022-08-16T10:49:44.402Z,18.13
2022-08-16T11:00:22.819Z,19.95
2022-08-16T11:11:07.581Z,18.23
2022-08-16T11:27:20.372Z,16.92
2022-08-16T11:32:31.336Z,19.67
2022-08-16T11:48:27.063Z,21.90
2022-08-16T11:53:36.390Z,20.40
2022-08-16T11:58:43.748Z,18.13
2022-08-16T12:03:58.562Z,18.70
2022-08-16T12:09:07.136Z,18.27
2022-08-16T12:14:15.721Z,17.70
2022-08-16T12:19:23.378Z,15.90
2022-08-16T12:24:39.715Z,15.90
2022-08-16T12:29:45.877Z,12.88
2022-08-16T12:34:53.120Z,13.70
2022-08-16T12:40:03.380Z,15.48
2022-08-16T12:45:27.696Z,14.50
2022-08-16T12:50:33.925Z,12.23
2022-08-16T12:55:47.505Z,12.85
2022-08-16T13:00:54.362Z,12.85
2022-08-16T13:06:01.092Z,11.85
2022-08-16T13:11:13.227Z,10.52
2022-08-16T13:16:27.310Z,6.37
2022-08-16T13:21:33.350Z,9.52
2022-08-16T13:26:39.272Z,11.73
2022-08-16T13:31:45.470Z,4.38
2022-08-16T13:36:51.388Z,8.20
2022-08-16T13:42:03.855Z,8.70
2022-08-16T13:47:10.403Z,10.40
2022-08-16T13:52:16.627Z,5.78
2022-08-16T13:57:22.735Z,7.13
2022-08-16T14:02:49.463Z,6.88
2022-08-16T14:07:56.296Z,6.75
2022-08-16T14:13:03.439Z,5.88
2022-08-16T14:18:17.212Z,5.25
2022-08-16T14:23:27.123Z,5.95
2022-08-16T14:28:33.963Z,6.18
2022-08-16T14:33:39.990Z,4.78
2022-08-16T14:38:47.014Z,5.00
2022-08-16T14:43:54.238Z,6.57
2022-08-16T14:49:02.976Z,3.63
2022-08-16T14:54:11.235Z,6.07
2022-08-16T14:59:17.459Z,4.50
2022-08-16T15:04:39.864Z,4.15
2022-08-16T15:10:00.937Z,5.57
2022-08-16T15:15:16.597Z,5.25
2022-08-16T15:20:22.749Z,4.53
2022-08-16T15:26:08.459Z,5.78
2022-08-16T15:31:16.349Z,5.80
2022-08-16T15:36:23.668Z,3.38
2022-08-16T15:41:46.955Z,4.80
2022-08-16T15:46:58.624Z,6.72
2022-08-16T15:57:18.181Z,6.10
2022-08-16T16:02:29.120Z,8.52
2022-08-16T16:07:40.650Z,9.30
2022-08-16T16:13:05.682Z,11.77
2022-08-16T16:18:15.747Z,11.63
2022-08-16T16:23:26.115Z,12.77
2022-08-16T16:29:06.346Z,9.18
2022-08-16T16:34:02.280Z,7.75
2022-08-16T16:39:10.517Z,8.98
2022-08-16T16:44:18.213Z,7.38
2022-08-16T16:49:41.681Z,8.13
2022-08-16T16:54:48.389Z,6.70
2022-08-16T16:59:55.804Z,7.43
2022-08-16T17:05:02.165Z,8.45
2022-08-16T17:10:08.059Z,7.53
2022-08-16T17:15:15.025Z,7.57
2022-08-16T17:20:25.259Z,7.82
2022-08-16T17:25:36.334Z,10.43
2022-08-16T17:30:45.508Z,8.85
2022-08-16T17:35:55.253Z,15.40
2022-08-16T17:41:05.890Z,14.05
2022-08-16T17:46:51.947Z,14.77
2022-08-16T17:51:40.654Z,15.73
2022-08-16T17:56:47.142Z,13.65
2022-08-16T18:01:53.396Z,12.32
2022-08-16T18:06:59.844Z,10.95
2022-08-16T18:12:44.947Z,11.15
2022-08-16T18:17:47.887Z,10.73
2022-08-16T18:22:53.458Z,10.57
2022-08-16T18:27:58.966Z,10.32
2022-08-16T18:33:04.634Z,9.63
2022-08-16T18:38:10.141Z,10.25
2022-08-16T18:43:21.267Z,9.50
2022-08-16T18:48:46.985Z,10.30
2022-08-16T18:53:52.409Z,12.55
2022-08-16T18:58:57.952Z,11.93
2022-08-16T19:04:47.393Z,11.60
2022-08-16T19:09:41.969Z,11.00
2022-08-16T19:19:52.653Z,13.00
2022-08-16T19:24:58.567Z,12.90
2022-08-16T19:30:04.024Z,11.35
2022-08-16T19:40:37.560Z,13.63
2022-08-16T19:45:45.945Z,12.32
2022-08-16T19:50:52.045Z,14.38
2022-08-16T19:55:58.036Z,13.65
2022-08-16T20:01:04.150Z,13.52
2022-08-16T20:06:10.471Z,14.27
2022-08-16T20:11:37.015Z,14.48
2022-08-16T20:16:43.282Z,14.98
2022-08-16T20:21:48.928Z,15.70
2022-08-16T20:26:54.379Z,16.70
2022-08-16T20:32:00.279Z,15.50
2022-08-16T20:37:07.903Z,17.65
2022-08-16T20:42:20.459Z,16.38
2022-08-16T20:47:26.993Z,17.33
2022-08-16T20:52:33.486Z,16.85
2022-08-16T20:57:39.423Z,16.67
2022-08-16T21:02:45.906Z,17.27
2022-08-16T21:07:53.496Z,15.88
2022-08-16T21:13:04.080Z,17.92
2022-08-16T21:18:09.575Z,17.08
2022-08-16T21:23:15.762Z,16.60
2022-08-16T21:28:41.184Z,16.77
2022-08-16T21:33:55.332Z,16.95
2022-08-16T21:39:01.571Z,16.60
2022-08-16T21:44:07.956Z,15.55
2022-08-16T21:49:13.394Z,18.20
2022-08-16T21:54:19.111Z,18.20
2022-08-16T22:04:36.730Z,16.88
2022-08-16T22:09:44.897Z,17.42
2022-08-16T22:14:50.566Z,17.85
2022-08-16T22:19:56.391Z,18.50
2022-08-16T22:25:03.588Z,17.90
2022-08-16T22:30:09.709Z,20.30
2022-08-16T22:35:16.674Z,20.52
2022-08-16T22:45:31.709Z,17.48
2022-08-16T22:50:37.759Z,18.52
2022-08-16T22:55:44.456Z,20.17
2022-08-16T23:00:49.774Z,19.17
2022-08-16T23:16:11.019Z,19.10
2022-08-16T23:21:19.082Z,18.30
2022-08-16T23:26:46.317Z,18.90
2022-08-16T23:31:50.653Z,19.27
2022-08-16T23:36:59.744Z,19.17
2022-08-16T23:42:53.063Z,18.95
2022-08-16T23:47:42.473Z,17.42
2022-08-16T23:53:03.060Z,17.63
2022-08-16T23:58:09.254Z,18.23
